Main page
METAR-TAF:

METAR-TAF

Airports :

King Abdulaziz Air Base

Dhahran, Saudi Arabia

latitude: 26-16N, longitude: 050-09E, elevation: 26 m

Current weather observation

The report was made 53 minutes ago, at 00:00 UTC
Wind 2 kt from variable directions
Temperature 16°C
Humidity 82%
Pressure 1015 hPa
Visibility 10 km or more
no clouds below 1500 m and no cumulonimbus

METAR: OEDR 180000Z VRB02KT CAVOK 16/13 Q1015 NOSIG

Time: 03:53 (00:53 UTC)

Forecast

The report was made 2 hours and 53 minutes ago, at 22:00 UTC
Forecast valid from 18 at 00 UTC to 19 at 06 UTC
Wind 4 kt from the South/Southeast
Visibility: 7000 m
Temporary
from 18 at 00 UTC to 18 at 04 UTC
Visibility: 3000 m
mist
Becoming
from 18 at 08 UTC to 18 at 10 UTC
Wind 12 kt from the East/Southeast

TAF: OEDR 172200Z 1800/1906 15004KT 7000 NSC TEMPO 1800/1804 3000 BR BECMG 1808/1810 12012KT

Weather observations and forecasts of more than 4000 airports (METAR and TAF reports).

The available stations are represented by yellow and red dots on the map.

Hover mouse over dot to see the name of the station.

Then click to see weather observations and forecasts.

To change the map : click on the green buttons with a black cross to zoom in, on the green button with a dash to zoom out, or on the green arrows for adjacent maps.


METAR-TAF: